createdAt,value
2019-02-25T00:00:21.493Z,3.20
2019-02-25T00:02:49.897Z,2.90
2019-02-25T00:05:18.337Z,2.70
2019-02-25T00:07:46.734Z,2.60
2019-02-25T00:10:15.457Z,2.60
2019-02-25T00:12:44.023Z,2.40
2019-02-25T00:15:12.606Z,2.30
2019-02-25T00:17:41.074Z,2.20
2019-02-25T00:20:13.105Z,2.10
2019-02-25T00:22:41.869Z,2.00
2019-02-25T00:25:11.900Z,1.90
2019-02-25T00:27:40.293Z,1.90
2019-02-25T00:30:13.969Z,1.90
2019-02-25T00:32:42.366Z,1.90
2019-02-25T00:35:10.846Z,1.90
2019-02-25T00:37:39.282Z,1.90
2019-02-25T00:40:09.980Z,1.90
2019-02-25T00:42:38.381Z,1.90
2019-02-25T00:45:09.743Z,1.90
2019-02-25T00:47:38.275Z,2.00
2019-02-25T00:50:10.110Z,2.10
2019-02-25T00:52:38.558Z,2.10
2019-02-25T00:55:08.206Z,2.10
2019-02-25T00:57:36.643Z,2.20
2019-02-25T01:00:22.996Z,2.20
2019-02-25T01:02:51.473Z,2.20
2019-02-25T01:05:20.150Z,2.20
2019-02-25T01:07:48.630Z,2.20
2019-02-25T01:10:20.692Z,2.20
2019-02-25T01:12:49.142Z,2.20
2019-02-25T01:15:17.585Z,2.10
2019-02-25T01:17:46.026Z,2.10
2019-02-25T01:20:17.773Z,2.10
2019-02-25T01:22:46.325Z,2.10
2019-02-25T01:25:16.033Z,2.00
2019-02-25T01:27:44.452Z,2.00
2019-02-25T01:30:17.868Z,2.00
2019-02-25T01:32:46.268Z,1.90
2019-02-25T01:35:15.053Z,1.80
2019-02-25T01:37:43.450Z,1.80
2019-02-25T01:40:15.549Z,1.60
2019-02-25T01:42:43.963Z,1.50
2019-02-25T01:45:21.569Z,1.50
2019-02-25T01:47:49.985Z,1.60
2019-02-25T01:50:18.419Z,1.50
2019-02-25T01:52:46.849Z,1.60
2019-02-25T01:55:15.258Z,1.70
2019-02-25T01:57:44.429Z,1.70
2019-02-25T02:00:18.711Z,1.80
2019-02-25T02:02:47.123Z,1.70
2019-02-25T02:05:15.619Z,1.60
2019-02-25T02:07:44.181Z,1.50
2019-02-25T02:10:17.356Z,1.50
2019-02-25T02:12:45.881Z,1.50
2019-02-25T02:15:18.957Z,1.60
2019-02-25T02:17:47.391Z,1.70
2019-02-25T02:20:17.338Z,1.70
2019-02-25T02:22:45.769Z,1.70
2019-02-25T02:25:14.617Z,1.80
2019-02-25T02:27:43.167Z,1.70
2019-02-25T02:30:20.097Z,1.80
2019-02-25T02:32:48.732Z,1.80
2019-02-25T02:35:17.146Z,1.80
2019-02-25T02:37:45.559Z,1.70
2019-02-25T02:40:14.500Z,1.70
2019-02-25T02:42:46.414Z,1.70
2019-02-25T02:45:23.912Z,1.70
2019-02-25T02:47:55.421Z,1.70
2019-02-25T02:50:24.683Z,1.60
2019-02-25T02:52:53.085Z,1.60
2019-02-25T02:55:21.494Z,1.60
2019-02-25T02:57:49.906Z,1.60
2019-02-25T03:00:19.453Z,1.70
2019-02-25T03:02:48.174Z,1.70
2019-02-25T03:05:17.522Z,1.80
2019-02-25T03:07:46.024Z,1.70
2019-02-25T03:10:19.061Z,1.70
2019-02-25T03:12:47.548Z,1.80
2019-02-25T03:15:20.863Z,1.90
2019-02-25T03:17:49.273Z,2.00
2019-02-25T03:20:17.732Z,2.00
2019-02-25T03:22:46.293Z,2.00
2019-02-25T03:25:16.525Z,1.90
2019-02-25T03:27:45.089Z,1.90
2019-02-25T03:30:18.744Z,1.90
2019-02-25T03:32:47.167Z,1.80
2019-02-25T03:35:15.644Z,1.60
2019-02-25T03:37:44.522Z,1.60
2019-02-25T03:40:15.181Z,1.60
2019-02-25T03:42:43.721Z,1.40
2019-02-25T03:45:14.722Z,1.50
2019-02-25T03:47:43.155Z,1.50
2019-02-25T03:50:11.788Z,1.60
2019-02-25T03:52:40.252Z,1.60
2019-02-25T03:55:17.153Z,1.50
2019-02-25T03:57:45.696Z,1.50
2019-02-25T04:00:19.473Z,1.50
2019-02-25T04:02:47.888Z,1.50
2019-02-25T04:05:16.357Z,1.50
2019-02-25T04:07:44.942Z,1.50
2019-02-25T04:10:14.597Z,1.50
2019-02-25T04:12:43.106Z,1.30
2019-02-25T04:15:18.626Z,1.30
2019-02-25T04:17:47.032Z,1.30
2019-02-25T04:20:16.685Z,1.50
2019-02-25T04:22:45.107Z,1.50
2019-02-25T04:25:13.531Z,1.60
2019-02-25T04:27:42.118Z,1.60
2019-02-25T04:30:16.888Z,1.50
2019-02-25T04:32:45.293Z,1.60
2019-02-25T04:35:14.173Z,1.70
2019-02-25T04:37:42.587Z,1.70
2019-02-25T04:40:14.669Z,1.70
2019-02-25T04:42:43.343Z,1.60
2019-02-25T04:45:19.670Z,1.60
2019-02-25T04:47:48.132Z,1.50
2019-02-25T04:50:16.549Z,1.30
2019-02-25T04:52:44.998Z,1.40
2019-02-25T04:55:15.356Z,1.40
2019-02-25T04:57:43.738Z,1.30
2019-02-25T05:00:14.762Z,1.30
2019-02-25T05:02:43.268Z,1.40
2019-02-25T05:05:11.749Z,1.40
2019-02-25T05:07:40.152Z,1.50
2019-02-25T05:10:11.070Z,1.50
2019-02-25T05:12:41.143Z,1.50
2019-02-25T05:15:11.502Z,1.60
2019-02-25T05:17:39.947Z,1.70
2019-02-25T05:20:27.701Z,1.80
2019-02-25T05:22:56.106Z,1.70
2019-02-25T05:25:24.589Z,1.60
2019-02-25T05:27:52.982Z,1.50
2019-02-25T05:30:21.427Z,1.50
2019-02-25T05:32:49.834Z,1.60
2019-02-25T05:35:18.259Z,1.50
2019-02-25T05:37:46.963Z,1.50
2019-02-25T05:40:17.512Z,1.40
2019-02-25T05:42:45.997Z,1.30
2019-02-25T05:45:15.362Z,1.20
2019-02-25T05:47:43.850Z,1.10
2019-02-25T05:50:17.972Z,1.10
2019-02-25T05:52:46.363Z,1.00
2019-02-25T05:55:18.150Z,1.10
2019-02-25T05:57:46.619Z,1.10
2019-02-25T06:00:35.562Z,1.10
2019-02-25T06:03:04.043Z,1.10
2019-02-25T06:05:32.817Z,1.20
2019-02-25T06:08:01.219Z,1.20
2019-02-25T06:10:29.678Z,1.30
2019-02-25T06:12:58.101Z,1.40
2019-02-25T06:15:26.513Z,1.50
2019-02-25T06:17:54.969Z,1.50
2019-02-25T06:20:23.369Z,1.40
2019-02-25T06:22:51.803Z,1.50
2019-02-25T06:25:20.223Z,1.60
2019-02-25T06:27:48.961Z,1.60
2019-02-25T06:30:22.396Z,1.60
2019-02-25T06:32:50.890Z,1.60
2019-02-25T06:35:19.384Z,1.70
2019-02-25T06:37:47.812Z,1.70
2019-02-25T06:40:17.864Z,1.70
2019-02-25T06:42:46.282Z,1.70
2019-02-25T06:45:20.641Z,1.70
2019-02-25T06:47:49.060Z,1.70
2019-02-25T06:50:17.464Z,1.50
2019-02-25T06:52:45.917Z,1.50
2019-02-25T06:55:17.545Z,1.40
2019-02-25T06:57:46.090Z,1.30
2019-02-25T07:00:18.809Z,1.30
2019-02-25T07:02:47.250Z,1.30
2019-02-25T07:05:17.699Z,1.30
2019-02-25T07:07:50.322Z,1.40
2019-02-25T07:10:20.441Z,1.40
2019-02-25T07:12:50.516Z,1.50
2019-02-25T07:15:20.584Z,1.60
2019-02-25T07:18:02.969Z,1.70
2019-02-25T07:20:49.537Z,1.70
2019-02-25T07:23:19.678Z,1.90
2019-02-25T07:25:58.817Z,1.90
2019-02-25T07:28:37.626Z,2.10
2019-02-25T07:31:07.714Z,2.30
2019-02-25T07:33:54.250Z,2.50
2019-02-25T07:36:27.291Z,2.80
2019-02-25T07:39:09.629Z,3.10
2019-02-25T07:41:42.325Z,3.40
2019-02-25T07:44:12.374Z,3.80
2019-02-25T07:46:42.435Z,3.90
2019-02-25T07:49:15.357Z,3.90
2019-02-25T07:51:45.539Z,4.10
2019-02-25T07:54:24.344Z,4.60
2019-02-25T07:57:12.733Z,5.00
2019-02-25T07:59:58.913Z,5.20
2019-02-25T08:02:28.979Z,5.30
2019-02-25T08:04:59.077Z,5.50
2019-02-25T08:07:32.109Z,5.60
2019-02-25T08:10:05.244Z,5.70
2019-02-25T08:12:37.720Z,6.10
2019-02-25T08:15:09.894Z,6.30
2019-02-25T08:17:49.002Z,6.70
2019-02-25T08:20:34.098Z,6.70
2019-02-25T08:23:07.405Z,6.80
2019-02-25T08:25:46.797Z,7.00
2019-02-25T08:28:19.649Z,7.20
2019-02-25T08:30:55.675Z,7.50
2019-02-25T08:33:25.809Z,8.00
2019-02-25T08:36:05.060Z,8.50
2019-02-25T08:38:43.143Z,8.40
2019-02-25T08:41:14.709Z,8.40
2019-02-25T08:43:47.730Z,8.50
2019-02-25T08:46:26.549Z,8.60
2019-02-25T08:49:02.175Z,8.80
2019-02-25T08:51:32.273Z,8.70
2019-02-25T08:54:00.721Z,8.90
2019-02-25T08:56:29.130Z,8.70
2019-02-25T08:58:57.574Z,8.70
2019-02-25T09:01:25.989Z,8.70
2019-02-25T09:03:54.467Z,9.00
2019-02-25T09:06:22.923Z,9.20
2019-02-25T09:08:51.435Z,9.20
2019-02-25T09:11:19.845Z,9.30
2019-02-25T09:13:48.271Z,8.80
2019-02-25T09:16:16.722Z,8.40
2019-02-25T09:18:45.159Z,8.20
2019-02-25T09:21:13.573Z,8.10
2019-02-25T09:23:42.010Z,8.20
2019-02-25T09:26:11.955Z,8.20
2019-02-25T09:28:40.557Z,8.10
2019-02-25T09:31:08.970Z,8.30
2019-02-25T09:33:37.417Z,8.60
2019-02-25T09:36:05.832Z,8.60
2019-02-25T09:38:34.308Z,8.70
2019-02-25T09:41:02.733Z,8.80
2019-02-25T09:43:31.194Z,8.60
2019-02-25T09:45:59.606Z,8.90
2019-02-25T09:48:28.058Z,8.80
2019-02-25T09:50:56.493Z,8.70
2019-02-25T09:53:24.914Z,8.80
2019-02-25T09:55:53.328Z,9.00
2019-02-25T09:58:21.789Z,9.20
2019-02-25T10:00:50.285Z,9.30
2019-02-25T10:03:18.722Z,9.30
2019-02-25T10:05:47.141Z,9.60
2019-02-25T10:08:15.548Z,9.40
2019-02-25T10:10:43.967Z,9.30
2019-02-25T10:13:12.377Z,9.40
2019-02-25T10:15:41.128Z,9.70
2019-02-25T10:18:09.573Z,10.00
2019-02-25T10:20:38.005Z,10.00
2019-02-25T10:23:06.768Z,10.30
2019-02-25T10:25:35.256Z,10.50
2019-02-25T10:28:03.662Z,10.70
2019-02-25T10:30:32.081Z,10.90
2019-02-25T10:33:00.925Z,11.00
2019-02-25T10:35:30.271Z,10.90
2019-02-25T10:37:58.711Z,10.50
2019-02-25T10:40:27.695Z,10.60
2019-02-25T10:42:56.262Z,11.00
2019-02-25T10:45:24.760Z,10.70
2019-02-25T10:47:58.328Z,10.60
2019-02-25T10:50:23.666Z,10.80
2019-02-25T10:52:52.114Z,11.10
2019-02-25T10:55:40.082Z,10.90
2019-02-25T10:58:11.189Z,10.50
2019-02-25T11:00:41.591Z,10.20
2019-02-25T11:03:10.709Z,10.20
2019-02-25T11:05:40.109Z,10.00
2019-02-25T11:08:12.073Z,10.10
2019-02-25T11:10:46.970Z,10.20
2019-02-25T11:13:15.138Z,10.20
2019-02-25T11:15:44.543Z,10.40
2019-02-25T11:18:13.693Z,10.30
2019-02-25T11:20:42.115Z,10.50
2019-02-25T11:23:12.307Z,10.70
2019-02-25T11:25:40.687Z,10.50
2019-02-25T11:28:20.692Z,10.30
2019-02-25T11:30:39.882Z,10.60
2019-02-25T11:33:08.285Z,10.80
2019-02-25T11:35:38.806Z,10.70
2019-02-25T11:38:06.885Z,10.80
2019-02-25T11:40:36.553Z,10.70
2019-02-25T11:43:05.569Z,10.70
2019-02-25T11:45:36.264Z,10.80
2019-02-25T11:48:04.909Z,10.80
2019-02-25T11:50:33.387Z,10.90
2019-02-25T11:53:01.844Z,10.90
2019-02-25T11:55:30.314Z,11.10
2019-02-25T11:57:58.744Z,11.20
2019-02-25T12:00:28.982Z,11.20
2019-02-25T12:02:57.433Z,11.40
2019-02-25T12:05:26.245Z,11.50
2019-02-25T12:07:54.677Z,11.70
2019-02-25T12:10:23.108Z,11.70
2019-02-25T12:12:51.540Z,11.70
2019-02-25T12:15:21.501Z,11.70
2019-02-25T12:17:50.010Z,11.60
2019-02-25T12:20:20.006Z,11.60
2019-02-25T12:22:48.523Z,11.70
2019-02-25T12:25:23.977Z,11.70
2019-02-25T12:27:52.398Z,11.80
2019-02-25T12:30:26.240Z,11.90
2019-02-25T12:32:54.658Z,12.00
2019-02-25T12:35:23.226Z,12.00
2019-02-25T12:37:51.633Z,12.10
2019-02-25T12:40:20.448Z,12.20
2019-02-25T12:42:48.875Z,12.10
2019-02-25T12:45:17.344Z,12.10
2019-02-25T12:47:45.758Z,12.20
2019-02-25T12:50:18.843Z,12.40
2019-02-25T12:52:47.406Z,12.40
2019-02-25T12:55:19.361Z,12.40
2019-02-25T12:57:47.803Z,12.40
2019-02-25T13:00:17.475Z,12.50
2019-02-25T13:02:45.948Z,12.50
2019-02-25T13:05:16.982Z,12.60
2019-02-25T13:07:45.402Z,12.60
2019-02-25T13:10:18.292Z,12.70
2019-02-25T13:12:46.721Z,12.50
2019-02-25T13:15:17.354Z,12.50
2019-02-25T13:17:45.767Z,12.60
2019-02-25T13:20:15.128Z,12.70
2019-02-25T13:22:43.563Z,12.70
2019-02-25T13:25:32.842Z,12.70
2019-02-25T13:28:02.138Z,12.70
2019-02-25T13:30:31.429Z,12.80
2019-02-25T13:32:59.875Z,12.80
2019-02-25T13:35:28.385Z,12.80
2019-02-25T13:37:56.821Z,12.90
2019-02-25T13:40:25.262Z,12.90
2019-02-25T13:42:53.945Z,12.80
2019-02-25T13:45:22.932Z,12.70
2019-02-25T13:47:51.413Z,12.80
2019-02-25T13:50:20.262Z,12.90
2019-02-25T13:52:49.183Z,13.00
2019-02-25T13:55:19.861Z,12.90
2019-02-25T13:57:48.367Z,13.00
2019-02-25T14:00:28.285Z,13.10
2019-02-25T14:02:56.797Z,13.10
2019-02-25T14:05:26.210Z,13.10
2019-02-25T14:07:54.681Z,13.10
2019-02-25T14:10:23.183Z,13.10
2019-02-25T14:12:51.661Z,13.10
2019-02-25T14:15:24.438Z,13.20
2019-02-25T14:17:52.970Z,13.20
2019-02-25T14:20:25.825Z,13.20
2019-02-25T14:22:54.353Z,13.20
2019-02-25T14:25:26.111Z,13.30
2019-02-25T14:27:54.701Z,13.30
2019-02-25T14:30:24.593Z,13.30
2019-02-25T14:32:53.674Z,13.30
2019-02-25T14:35:28.168Z,13.40
2019-02-25T14:38:01.721Z,13.40
2019-02-25T14:40:31.572Z,13.40
2019-02-25T14:42:59.546Z,13.40
2019-02-25T14:45:28.890Z,13.40
2019-02-25T14:48:00.022Z,13.50
2019-02-25T14:50:28.916Z,13.40
2019-02-25T14:52:57.397Z,13.40
2019-02-25T14:55:26.444Z,13.40
2019-02-25T14:57:55.248Z,13.40
2019-02-25T15:00:28.396Z,13.40
2019-02-25T15:02:56.273Z,13.40
2019-02-25T15:05:25.608Z,13.40
2019-02-25T15:07:54.029Z,13.40
2019-02-25T15:10:26.703Z,13.40
2019-02-25T15:12:56.634Z,13.40
2019-02-25T15:15:23.830Z,13.30
2019-02-25T15:17:52.714Z,13.30
2019-02-25T15:20:23.441Z,13.30
2019-02-25T15:22:52.695Z,13.30
2019-02-25T15:25:21.634Z,13.30
2019-02-25T15:27:50.689Z,13.40
2019-02-25T15:30:28.315Z,13.30
2019-02-25T15:32:59.328Z,13.30
2019-02-25T15:35:31.440Z,13.20
2019-02-25T15:37:57.830Z,13.30
2019-02-25T15:40:27.564Z,13.20
2019-02-25T15:43:15.815Z,13.30
2019-02-25T15:45:44.327Z,13.20
2019-02-25T15:48:15.086Z,13.20
2019-02-25T15:50:46.046Z,13.20
2019-02-25T15:53:16.030Z,13.30
2019-02-25T15:55:44.381Z,13.30
2019-02-25T15:58:12.889Z,13.30
2019-02-25T16:00:41.712Z,13.30
2019-02-25T16:03:11.305Z,13.30
2019-02-25T16:05:40.507Z,13.30
2019-02-25T16:08:11.057Z,13.20
2019-02-25T16:10:39.570Z,13.30
2019-02-25T16:13:11.620Z,13.20
2019-02-25T16:15:39.450Z,13.20
2019-02-25T16:18:08.003Z,13.10
2019-02-25T16:20:36.477Z,13.00
2019-02-25T16:23:07.780Z,13.10
2019-02-25T16:25:36.044Z,13.00
2019-02-25T16:28:05.959Z,12.90
2019-02-25T16:30:35.208Z,12.90
2019-02-25T16:33:04.847Z,12.80
2019-02-25T16:35:34.839Z,12.80
2019-02-25T16:38:05.169Z,12.70
2019-02-25T16:40:36.135Z,12.70
2019-02-25T16:43:05.238Z,12.70
2019-02-25T16:45:37.094Z,12.60
2019-02-25T16:48:06.022Z,12.50
2019-02-25T16:50:35.308Z,12.50
2019-02-25T16:53:07.936Z,12.50
2019-02-25T16:55:35.135Z,12.40
2019-02-25T16:58:05.481Z,12.40
2019-02-25T17:00:35.448Z,12.30
2019-02-25T17:03:05.985Z,12.20
2019-02-25T17:05:37.321Z,12.20
2019-02-25T17:08:05.757Z,12.10
2019-02-25T17:10:34.832Z,12.00
2019-02-25T17:13:03.529Z,12.00
2019-02-25T17:15:32.022Z,11.90
2019-02-25T17:18:00.513Z,11.90
2019-02-25T17:20:29.394Z,11.80
2019-02-25T17:22:59.675Z,11.80
2019-02-25T17:25:29.431Z,11.70
2019-02-25T17:27:58.172Z,11.70
2019-02-25T17:30:28.751Z,11.60
2019-02-25T17:32:57.220Z,11.60
2019-02-25T17:35:28.345Z,11.50
2019-02-25T17:37:58.355Z,11.50
2019-02-25T17:40:26.675Z,11.40
2019-02-25T17:42:56.335Z,11.40
2019-02-25T17:45:27.726Z,11.30
2019-02-25T17:47:58.569Z,11.20
2019-02-25T17:50:27.432Z,11.20
2019-02-25T17:52:56.007Z,11.10
2019-02-25T17:55:29.377Z,11.00
2019-02-25T17:58:00.822Z,10.90
2019-02-25T18:00:36.769Z,10.90
2019-02-25T18:03:05.822Z,10.90
2019-02-25T18:05:35.870Z,10.80
2019-02-25T18:08:07.492Z,10.80
2019-02-25T18:10:35.752Z,10.70
2019-02-25T18:13:06.697Z,10.70
2019-02-25T18:15:34.767Z,10.70
2019-02-25T18:18:07.020Z,10.60
2019-02-25T18:20:33.440Z,10.60
2019-02-25T18:23:04.983Z,10.50
2019-02-25T18:25:32.673Z,10.60
2019-02-25T18:28:01.378Z,10.50
2019-02-25T18:30:32.791Z,10.40
2019-02-25T18:33:04.627Z,10.40
2019-02-25T18:35:33.918Z,10.30
2019-02-25T18:38:03.136Z,10.30
2019-02-25T18:40:33.490Z,10.30
2019-02-25T18:43:03.038Z,10.30
2019-02-25T18:45:33.289Z,10.30
2019-02-25T18:48:03.022Z,10.30
2019-02-25T18:50:31.867Z,10.30
2019-02-25T18:53:01.378Z,10.20
2019-02-25T18:55:33.523Z,10.20
2019-02-25T18:58:00.352Z,10.20
2019-02-25T19:00:42.452Z,10.10
2019-02-25T19:03:10.499Z,10.10
2019-02-25T19:05:39.132Z,10.10
2019-02-25T19:08:20.275Z,10.00
2019-02-25T19:10:51.027Z,9.90
2019-02-25T19:13:20.942Z,9.90
2019-02-25T19:15:50.790Z,9.90
2019-02-25T19:18:19.491Z,9.90
2019-02-25T19:20:48.279Z,9.90
2019-02-25T19:23:16.841Z,9.80
2019-02-25T19:25:45.889Z,9.70
2019-02-25T19:28:18.704Z,9.70
2019-02-25T19:30:44.862Z,9.60
2019-02-25T19:33:13.397Z,9.60
2019-02-25T19:35:42.189Z,9.50
2019-02-25T19:38:12.772Z,9.50
2019-02-25T19:40:43.123Z,9.40
2019-02-25T19:43:11.302Z,9.20
2019-02-25T19:45:40.982Z,9.10
2019-02-25T19:48:09.871Z,9.00
2019-02-25T19:50:50.237Z,8.90
2019-02-25T19:53:11.756Z,8.80
2019-02-25T19:55:41.009Z,8.80
2019-02-25T19:58:09.492Z,8.70
2019-02-25T20:00:38.088Z,8.70
2019-02-25T20:03:06.560Z,8.70
2019-02-25T20:05:38.782Z,8.70
2019-02-25T20:08:05.461Z,8.70
2019-02-25T20:10:34.410Z,8.60
2019-02-25T20:13:05.657Z,8.60
2019-02-25T20:15:33.285Z,8.50
2019-02-25T20:18:01.709Z,8.60
2019-02-25T20:20:33.979Z,8.50
2019-02-25T20:23:03.823Z,8.40
2019-02-25T20:25:53.405Z,8.50
2019-02-25T20:28:22.436Z,8.40
2019-02-25T20:30:55.565Z,8.40
2019-02-25T20:33:29.805Z,8.40
2019-02-25T20:35:55.943Z,8.40
2019-02-25T20:38:26.835Z,8.30
2019-02-25T20:40:55.597Z,8.00
2019-02-25T20:43:25.855Z,7.60
2019-02-25T20:45:56.375Z,7.20
2019-02-25T20:48:27.344Z,7.10
2019-02-25T20:50:55.425Z,7.10
2019-02-25T20:53:25.080Z,7.00
2019-02-25T20:55:54.646Z,6.80
2019-02-25T20:58:24.417Z,6.80
2019-02-25T21:00:52.945Z,6.90
2019-02-25T21:03:23.135Z,6.90
2019-02-25T21:05:51.590Z,6.90
2019-02-25T21:08:21.372Z,6.90
2019-02-25T21:10:50.272Z,6.80
2019-02-25T21:13:18.719Z,6.60
2019-02-25T21:15:47.243Z,6.50
2019-02-25T21:18:15.645Z,6.50
2019-02-25T21:20:45.170Z,6.60
2019-02-25T21:23:14.217Z,6.50
2019-02-25T21:25:44.175Z,6.30
2019-02-25T21:28:12.901Z,6.30
2019-02-25T21:30:43.561Z,6.40
2019-02-25T21:33:15.275Z,6.50
2019-02-25T21:35:41.980Z,6.50
2019-02-25T21:38:10.426Z,6.50
2019-02-25T21:40:38.912Z,6.30
2019-02-25T21:43:12.093Z,6.20
2019-02-25T21:45:37.625Z,6.20
2019-02-25T21:48:07.650Z,6.20
2019-02-25T21:50:38.217Z,6.10
2019-02-25T21:53:07.522Z,6.00
2019-02-25T21:55:36.798Z,5.90
2019-02-25T21:58:05.242Z,5.80
2019-02-25T22:00:35.859Z,5.80
2019-02-25T22:03:06.046Z,5.60
2019-02-25T22:05:33.945Z,5.40
2019-02-25T22:08:04.101Z,5.30
2019-02-25T22:10:34.914Z,5.30
2019-02-25T22:13:06.723Z,5.30
2019-02-25T22:15:34.033Z,5.30
2019-02-25T22:18:03.880Z,5.20
2019-02-25T22:20:35.614Z,5.10
2019-02-25T22:23:05.290Z,5.00
2019-02-25T22:25:34.058Z,5.00
2019-02-25T22:28:03.392Z,5.00
2019-02-25T22:30:32.721Z,5.00
2019-02-25T22:33:03.007Z,4.90
2019-02-25T22:35:35.533Z,4.80
2019-02-25T22:38:02.806Z,4.70
2019-02-25T22:40:32.256Z,4.70
2019-02-25T22:43:01.860Z,4.70
2019-02-25T22:45:31.467Z,4.70
2019-02-25T22:48:00.413Z,4.70
2019-02-25T22:50:29.142Z,4.70
2019-02-25T22:53:01.141Z,4.60
2019-02-25T22:55:29.206Z,4.50
2019-02-25T22:57:57.676Z,4.50
2019-02-25T23:00:41.627Z,4.40
2019-02-25T23:03:11.393Z,4.30
2019-02-25T23:05:42.985Z,4.30
2019-02-25T23:08:12.787Z,4.40
2019-02-25T23:10:42.144Z,4.40
2019-02-25T23:13:10.779Z,4.50
2019-02-25T23:15:39.290Z,4.60
2019-02-25T23:18:10.027Z,4.70
2019-02-25T23:20:38.163Z,4.80
2019-02-25T23:23:06.754Z,4.70
2019-02-25T23:25:36.975Z,4.50
2019-02-25T23:28:05.426Z,4.40
2019-02-25T23:30:33.837Z,4.30
2019-02-25T23:33:02.242Z,4.20
2019-02-25T23:35:30.668Z,4.10
2019-02-25T23:38:00.832Z,4.20
2019-02-25T23:40:31.267Z,4.20
2019-02-25T23:43:02.966Z,4.10
2019-02-25T23:45:29.489Z,4.10
2019-02-25T23:47:59.726Z,4.20
2019-02-25T23:50:29.681Z,4.20
2019-02-25T23:52:58.197Z,4.10
2019-02-25T23:55:27.781Z,4.00
2019-02-25T23:57:56.759Z,4.00
